KSGR

Sugar Land Regional Airport

Houston, Texas, USA
KSGR 181158Z 1812/1912 10005KT 6SM -SHRA BR BKN025 FM181600 11012G20KT 5SM -SHRA VCTS SCT015CB OVC025 FM182300 10011KT P6SM VCSH BKN025 FM190900 12009KT P6SM -SHRA BKN020
Issued Valid From Valid To
Jun-18 @ 11:58 UTC
(an hour ago)
Jun-18 @ 12:00 UTC
(an hour ago)
Jun-19 @ 12:00 UTC
(in 23 hours)
Jun-18 @ 12:00 to Jun-18 @ 16:00
KSGR 181158Z 1812/1912 10005KT 6SM -SHRA BR BKN025
Wind Visibility Clouds Conditions
100° at 5 knots 6 miles
  • Broken at 2,500' AGL
  • Light Rain
  • Mist
From Jun-18 @ 16:00 to Jun-18 @ 23:00
FM181600 11012G20KT 5SM -SHRA VCTS SCT015CB OVC025
Wind Visibility Clouds Conditions
110° at 12 knots
 Gusting to 20 knots
5 miles
  • Scattered at 1,500' AGL
  • Overcast at 2,500' AGL
  • Light Rain
  • Area Thunderstorm
From Jun-18 @ 23:00 to Jun-19 @ 09:00
FM182300 10011KT P6SM VCSH BKN025
Wind Visibility Clouds
100° at 11 knots Greater than 6 miles
  • Broken at 2,500' AGL
From Jun-19 @ 09:00 to Jun-19 @ 12:00
FM190900 12009KT P6SM -SHRA BKN020
Wind Visibility Clouds Conditions
120° at 9 knots Greater than 6 miles
  • Broken at 2,000' AGL
  • Light Rain
KSGR 181158Z 1812/1912 10005KT 6SM -SHRA BR BKN025 FM181600 11012G20KT 5SM -SHRA VCTS SCT015CB OVC025 FM182300 10011KT P6SM VCSH BKN025 FM190900 12009KT P6SM -SHRA BKN020
Issued Jun-18 @ 11:58 UTC
(an hour ago)
Valid From Jun-18 @ 12:00 UTC
(an hour ago)
Valid To Jun-19 @ 12:00 UTC
(in 23 hours)
Jun-18 @ 12:00 - Jun-18 @ 16:00
Wind Visibility
100° at 5 knots 6 miles
Clouds
  • Broken at 2,500' AGL
Conditions
  • Light Rain
  • Mist
From Jun-18 @ 16:00 - Jun-18 @ 23:00
Wind Visibility
110° at 12 knots
 Gusting to 20 knots
5 miles
Clouds
  • Scattered at 1,500' AGL
  • Overcast at 2,500' AGL
Conditions
  • Light Rain
  • Area Thunderstorm
From Jun-18 @ 23:00 - Jun-19 @ 09:00
Wind Visibility
100° at 11 knots Greater than 6 miles
Clouds
  • Broken at 2,500' AGL
From Jun-19 @ 09:00 - Jun-19 @ 12:00
Wind Visibility
120° at 9 knots Greater than 6 miles
Clouds
  • Broken at 2,000' AGL
Conditions
  • Light Rain